Time;durP1;ratioP1;P1;durP2;ratioP2;P2;SDS_P1;SDS_P2;PMS_P1;PMS_P2;Temp;Humidity;BMP_temperature;BMP_pressure;BME280_temperature;BME280_humidity;BME280_pressure;Samples;Min_cycle;Max_cycle;Signal;HPM_P1;HPM_P2
2021/07/01 00:01:39;;;;;;;5.80;5.30;;;;;;;;;;5112568;28;20297;-82
2021/07/01 00:04:06;;;;;;;4.50;4.18;;;;;;;;;;5113148;28;20216;-84
2021/07/01 00:06:34;;;;;;;4.68;4.32;;;;;;;;;;5112377;28;20204;-82
2021/07/01 00:09:01;;;;;;;5.35;4.95;;;;;;;;;;5112116;28;20210;-82
2021/07/01 00:11:28;;;;;;;4.53;4.18;;;;;;;;;;5112585;28;20736;-83
2021/07/01 00:13:56;;;;;;;5.07;4.68;;;;;;;;;;5112690;28;20180;-82
2021/07/01 00:16:24;;;;;;;3.97;3.67;;;;;;;;;;5112534;28;20299;-83
2021/07/01 00:18:53;;;;;;;4.13;3.72;;;;;;;;;;5113183;28;20199;-83
2021/07/01 00:21:20;;;;;;;4.45;3.78;;;;;;;;;;5112620;28;20245;-82
2021/07/01 00:23:47;;;;;;;3.30;3.10;;;;;;;;;;5112963;28;20207;-83
2021/07/01 00:26:15;;;;;;;3.60;3.30;;;;;;;;;;5112567;28;20209;-84
2021/07/01 00:28:42;;;;;;;2.78;2.58;;;;;;;;;;5112408;28;20192;-82
2021/07/01 00:31:10;;;;;;;2.60;2.40;;;;;;;;;;5116442;28;20787;-82
2021/07/01 00:33:37;;;;;;;2.45;2.25;;;;;;;;;;5117379;28;20207;-83
2021/07/01 00:36:06;;;;;;;2.70;2.50;;;;;;;;;;5117154;28;20211;-82
2021/07/01 00:38:33;;;;;;;3.05;2.85;;;;;;;;;;5116727;28;20230;-82
2021/07/01 00:41:01;;;;;;;2.58;2.38;;;;;;;;;;5116661;28;20227;-82
2021/07/01 00:43:28;;;;;;;3.15;2.92;;;;;;;;;;5116810;28;20191;-82
2021/07/01 00:45:56;;;;;;;2.92;2.72;;;;;;;;;;5116908;28;20199;-82
2021/07/01 00:48:23;;;;;;;2.30;2.10;;;;;;;;;;5116516;28;20227;-84
2021/07/01 00:50:53;;;;;;;2.30;2.10;;;;;;;;;;5116560;28;20223;-82
2021/07/01 00:53:22;;;;;;;2.50;2.30;;;;;;;;;;5116847;28;20598;-82
2021/07/01 00:55:49;;;;;;;1.60;1.50;;;;;;;;;;5116596;28;20182;-82
2021/07/01 00:58:17;;;;;;;2.40;2.20;;;;;;;;;;5116586;28;20215;-82
2021/07/01 01:00:54;;;;;;;2.85;2.65;;;;;;;;;;5116083;28;20595;-82
2021/07/01 01:03:21;;;;;;;2.05;1.85;;;;;;;;;;5116914;28;20234;-82
2021/07/01 01:05:49;;;;;;;1.90;1.80;;;;;;;;;;5116517;28;20196;-82
2021/07/01 01:08:16;;;;;;;2.40;2.20;;;;;;;;;;5116008;28;20290;-82
2021/07/01 01:10:45;;;;;;;1.92;1.83;;;;;;;;;;5116505;28;20216;-83
2021/07/01 01:13:23;;;;;;;2.10;1.98;;;;;;;;;;5115748;28;20290;-82
2021/07/01 01:15:51;;;;;;;3.13;2.03;;;;;;;;;;5116122;28;20223;-82
2021/07/01 01:18:18;;;;;;;2.35;2.15;;;;;;;;;;5116085;28;20592;-82
2021/07/01 01:20:46;;;;;;;2.40;1.92;;;;;;;;;;5115729;28;20330;-82
2021/07/01 01:23:15;;;;;;;2.35;2.10;;;;;;;;;;5115928;28;20207;-82
2021/07/01 01:25:45;;;;;;;2.20;2.00;;;;;;;;;;5116285;28;20188;-82
2021/07/01 01:28:12;;;;;;;2.67;2.40;;;;;;;;;;5116225;28;20180;-82
2021/07/01 01:30:40;;;;;;;2.85;2.53;;;;;;;;;;5116180;28;20227;-82
2021/07/01 01:33:08;;;;;;;2.55;2.35;;;;;;;;;;5115637;28;20669;-82
2021/07/01 01:35:36;;;;;;;3.08;2.78;;;;;;;;;;5115382;28;20204;-82
2021/07/01 01:38:08;;;;;;;2.13;1.98;;;;;;;;;;5115647;28;20204;-82
2021/07/01 01:40:37;;;;;;;5.95;3.78;;;;;;;;;;5114977;28;20208;-82
2021/07/01 01:43:05;;;;;;;2.03;1.85;;;;;;;;;;5115826;28;20206;-83
2021/07/01 01:45:32;;;;;;;2.55;2.35;;;;;;;;;;5115422;28;20198;-82
2021/07/01 01:48:00;;;;;;;2.72;2.53;;;;;;;;;;5115516;28;20199;-82
2021/07/01 01:50:27;;;;;;;3.05;2.85;;;;;;;;;;5115586;28;20226;-83
2021/07/01 01:52:55;;;;;;;2.40;2.20;;;;;;;;;;5115487;28;20207;-83
2021/07/01 01:55:22;;;;;;;2.55;2.17;;;;;;;;;;5115467;28;20200;-82
2021/07/01 01:57:53;;;;;;;3.00;2.80;;;;;;;;;;5115176;28;20216;-81
2021/07/01 02:00:22;;;;;;;2.85;2.50;;;;;;;;;;5115214;28;20220;-82
2021/07/01 02:02:50;;;;;;;2.78;2.58;;;;;;;;;;5115412;28;20196;-81
2021/07/01 02:05:18;;;;;;;3.10;2.90;;;;;;;;;;5115025;28;20297;-82
2021/07/01 02:07:46;;;;;;;2.22;2.03;;;;;;;;;;5115312;28;20200;-81
2021/07/01 02:10:16;;;;;;;2.40;2.20;;;;;;;;;;5115500;28;20190;-83
2021/07/01 02:12:43;;;;;;;2.60;2.40;;;;;;;;;;5115338;28;20192;-81
2021/07/01 02:15:15;;;;;;;2.65;2.40;;;;;;;;;;5115487;28;20206;-82
2021/07/01 02:17:43;;;;;;;3.40;3.10;;;;;;;;;;5115040;28;20184;-82
2021/07/01 02:20:13;;;;;;;3.40;3.10;;;;;;;;;;5114358;28;20205;-82
2021/07/01 02:22:42;;;;;;;3.03;2.78;;;;;;;;;;5115265;28;20639;-82
2021/07/01 02:25:11;;;;;;;4.63;3.58;;;;;;;;;;5114723;28;20200;-82
2021/07/01 02:27:39;;;;;;;3.92;3.63;;;;;;;;;;5114624;28;20192;-81
2021/07/01 02:30:13;;;;;;;4.18;3.50;;;;;;;;;;5114810;28;20199;-81
2021/07/01 02:32:40;;;;;;;4.10;3.80;;;;;;;;;;5114751;28;20195;-82
2021/07/01 02:35:11;;;;;;;3.70;3.40;;;;;;;;;;5114654;28;20210;-82
2021/07/01 02:37:39;;;;;;;3.88;3.58;;;;;;;;;;5114368;28;20208;-82
2021/07/01 02:40:11;;;;;;;4.10;3.47;;;;;;;;;;5115595;28;20176;-82
2021/07/01 02:42:39;;;;;;;3.97;3.67;;;;;;;;;;5114848;28;20199;-81
2021/07/01 02:45:08;;;;;;;3.92;3.40;;;;;;;;;;5114385;28;20204;-82
2021/07/01 02:47:37;;;;;;;4.07;3.70;;;;;;;;;;5114180;28;20214;-83
2021/07/01 02:50:05;;;;;;;5.18;3.47;;;;;;;;;;5113610;28;20206;-82
2021/07/01 02:52:33;;;;;;;3.75;3.45;;;;;;;;;;5114352;28;20626;-83
2021/07/01 02:55:00;;;;;;;4.07;3.75;;;;;;;;;;5114488;28;20199;-83
2021/07/01 02:57:28;;;;;;;5.82;3.45;;;;;;;;;;5065651;28;20203;-83
2021/07/01 02:59:55;;;;;;;3.97;3.65;;;;;;;;;;5113928;28;20215;-83
2021/07/01 03:02:22;;;;;;;4.40;4.00;;;;;;;;;;5113985;28;20325;-84
2021/07/01 03:04:51;;;;;;;3.88;3.47;;;;;;;;;;5113582;28;20207;-83
2021/07/01 03:07:19;;;;;;;3.35;3.15;;;;;;;;;;5114097;28;20657;-83
2021/07/01 03:09:46;;;;;;;4.03;3.60;;;;;;;;;;5114759;28;20210;-83
2021/07/01 03:12:14;;;;;;;3.78;3.45;;;;;;;;;;5113937;28;20709;-84
2021/07/01 03:14:41;;;;;;;5.32;3.88;;;;;;;;;;5114769;28;20196;-83
2021/07/01 03:17:08;;;;;;;4.28;3.58;;;;;;;;;;5113532;28;20211;-83
2021/07/01 03:19:36;;;;;;;4.00;3.60;;;;;;;;;;5113949;28;20211;-83
2021/07/01 03:22:05;;;;;;;3.40;3.10;;;;;;;;;;5113387;28;20235;-83
2021/07/01 03:24:32;;;;;;;4.63;3.65;;;;;;;;;;5113954;28;20729;-83
2021/07/01 03:27:00;;;;;;;3.40;3.10;;;;;;;;;;5113983;28;20580;-83
2021/07/01 03:29:28;;;;;;;3.50;3.20;;;;;;;;;;5113517;28;20264;-83
2021/07/01 03:31:56;;;;;;;5.22;3.03;;;;;;;;;;5114659;28;20685;-83
2021/07/01 03:34:23;;;;;;;3.53;2.60;;;;;;;;;;5114723;28;20562;-83
2021/07/01 03:36:51;;;;;;;2.90;2.63;;;;;;;;;;5114090;28;20231;-83
2021/07/01 03:39:19;;;;;;;3.03;2.53;;;;;;;;;;5113877;28;20230;-83
2021/07/01 03:41:47;;;;;;;3.30;2.55;;;;;;;;;;5114775;28;20223;-83
2021/07/01 03:44:16;;;;;;;2.85;2.42;;;;;;;;;;5114309;28;20207;-83
2021/07/01 03:46:43;;;;;;;2.92;2.40;;;;;;;;;;5114756;28;20238;-83
2021/07/01 03:49:12;;;;;;;2.88;2.60;;;;;;;;;;5115227;28;20199;-84
2021/07/01 03:51:39;;;;;;;3.22;2.90;;;;;;;;;;5114217;28;20510;-83
2021/07/01 03:54:07;;;;;;;3.58;3.15;;;;;;;;;;5114833;28;20198;-83
2021/07/01 03:56:42;;;;;;;3.08;2.80;;;;;;;;;;5113369;28;20207;-83
2021/07/01 03:59:11;;;;;;;3.70;2.88;;;;;;;;;;5113814;28;20225;-83
2021/07/01 04:01:38;;;;;;;3.75;3.00;;;;;;;;;;5114097;28;20215;-83
2021/07/01 04:04:06;;;;;;;3.47;2.90;;;;;;;;;;5113265;28;20200;-84
2021/07/01 04:06:34;;;;;;;7.90;3.53;;;;;;;;;;5113892;28;20605;-83
2021/07/01 04:09:02;;;;;;;2.85;2.58;;;;;;;;;;5113255;28;20198;-83
2021/07/01 04:11:29;;;;;;;3.20;2.53;;;;;;;;;;5113385;28;20216;-83
2021/07/01 04:13:58;;;;;;;2.40;2.20;;;;;;;;;;5113025;28;20199;-83
2021/07/01 04:16:25;;;;;;;2.40;2.20;;;;;;;;;;5113867;28;20214;-83
2021/07/01 04:18:53;;;;;;;2.95;2.75;;;;;;;;;;5113169;28;20206;-83
2021/07/01 04:21:25;;;;;;;4.07;3.40;;;;;;;;;;5112894;28;20243;-83
2021/07/01 04:23:52;;;;;;;3.55;2.15;;;;;;;;;;5113442;28;20218;-83
2021/07/01 04:26:20;;;;;;;2.75;2.53;;;;;;;;;;5113611;28;20586;-84
2021/07/01 04:28:48;;;;;;;1.90;1.80;;;;;;;;;;5114719;28;20564;-83
2021/07/01 04:31:17;;;;;;;2.97;2.78;;;;;;;;;;5114654;28;20219;-83
2021/07/01 04:33:44;;;;;;;2.60;2.40;;;;;;;;;;5114720;28;20205;-83
2021/07/01 04:36:12;;;;;;;2.30;2.08;;;;;;;;;;5114068;28;20210;-83
2021/07/01 04:38:39;;;;;;;2.05;1.95;;;;;;;;;;5114104;28;20199;-83
2021/07/01 04:41:07;;;;;;;2.58;2.38;;;;;;;;;;5113211;28;20227;-83
2021/07/01 04:43:34;;;;;;;2.60;2.40;;;;;;;;;;5113857;28;20200;-83
2021/07/01 04:46:01;;;;;;;3.67;3.38;;;;;;;;;;5113709;28;20208;-82
2021/07/01 04:48:30;;;;;;;3.97;3.63;;;;;;;;;;5113211;28;20748;-83
2021/07/01 04:50:59;;;;;;;4.15;3.85;;;;;;;;;;5113612;28;20219;-83
2021/07/01 04:53:26;;;;;;;4.47;4.07;;;;;;;;;;5115952;28;20294;-83
2021/07/01 04:55:53;;;;;;;3.95;3.65;;;;;;;;;;5112601;28;20207;-83
2021/07/01 04:58:21;;;;;;;4.40;4.00;;;;;;;;;;5113515;28;20204;-82
2021/07/01 05:00:48;;;;;;;3.42;3.22;;;;;;;;;;5113079;28;20227;-83
2021/07/01 05:03:16;;;;;;;5.50;5.00;;;;;;;;;;5113417;28;20566;-83
2021/07/01 05:05:44;;;;;;;4.30;3.90;;;;;;;;;;5113207;28;20599;-83
2021/07/01 05:08:12;;;;;;;5.70;5.18;;;;;;;;;;5113465;28;20204;-83
2021/07/01 05:10:40;;;;;;;4.55;4.15;;;;;;;;;;5113309;28;20222;-83
2021/07/01 05:13:07;;;;;;;3.83;3.53;;;;;;;;;;5112165;28;20204;-82
2021/07/01 05:15:35;;;;;;;4.18;3.85;;;;;;;;;;5112992;28;20680;-82
2021/07/01 05:18:02;;;;;;;4.47;4.07;;;;;;;;;;5116680;28;20206;-83
2021/07/01 05:20:30;;;;;;;5.35;4.53;;;;;;;;;;5116187;28;20223;-82
2021/07/01 05:22:59;;;;;;;5.93;4.97;;;;;;;;;;5115289;27;20200;-84
2021/07/01 05:25:27;;;;;;;4.88;4.45;;;;;;;;;;5113065;27;20222;-83
2021/07/01 05:27:54;;;;;;;5.43;4.28;;;;;;;;;;5114859;28;20207;-85
2021/07/01 05:30:21;;;;;;;4.82;4.03;;;;;;;;;;5116115;28;20223;-84
2021/07/01 05:32:49;;;;;;;6.10;3.60;;;;;;;;;;5115719;28;20206;-84
2021/07/01 05:35:16;;;;;;;4.65;3.80;;;;;;;;;;5116217;28;20199;-83
2021/07/01 05:37:44;;;;;;;4.60;3.47;;;;;;;;;;5115892;28;20200;-83
2021/07/01 05:40:15;;;;;;;4.32;3.92;;;;;;;;;;5116054;28;20684;-84
2021/07/01 05:42:43;;;;;;;4.30;3.50;;;;;;;;;;5116172;28;20200;-83
2021/07/01 05:45:11;;;;;;;4.00;3.67;;;;;;;;;;5116817;28;20202;-84
2021/07/01 05:47:39;;;;;;;4.15;3.78;;;;;;;;;;5115862;28;20202;-83
2021/07/01 05:50:09;;;;;;;2.90;2.70;;;;;;;;;;5115605;28;20234;-82
2021/07/01 05:52:37;;;;;;;3.63;3.33;;;;;;;;;;5115670;28;20235;-84
2021/07/01 05:55:06;;;;;;;4.93;3.08;;;;;;;;;;5115220;28;20192;-83
2021/07/01 05:57:34;;;;;;;2.92;2.72;;;;;;;;;;5115082;28;20206;-83
2021/07/01 06:00:02;;;;;;;3.50;3.05;;;;;;;;;;5115166;28;20203;-82
2021/07/01 06:02:29;;;;;;;3.78;2.97;;;;;;;;;;5115421;28;20207;-83
2021/07/01 06:04:56;;;;;;;3.00;2.80;;;;;;;;;;5115549;28;20199;-83
2021/07/01 06:07:26;;;;;;;2.70;2.50;;;;;;;;;;5115120;28;20561;-83
2021/07/01 06:09:55;;;;;;;3.17;2.90;;;;;;;;;;5115605;28;20205;-85
2021/07/01 06:12:23;;;;;;;2.00;1.90;;;;;;;;;;5115323;28;20216;-84
2021/07/01 06:14:57;;;;;;;2.55;2.35;;;;;;;;;;5115721;28;20229;-83
2021/07/01 06:17:28;;;;;;;2.05;1.85;;;;;;;;;;5115161;28;20188;-83
2021/07/01 06:19:56;;;;;;;2.05;1.85;;;;;;;;;;5114987;28;20249;-83
2021/07/01 06:22:25;;;;;;;3.20;2.90;;;;;;;;;;5114649;28;20708;-83
2021/07/01 06:24:55;;;;;;;2.60;2.40;;;;;;;;;;5115950;28;20200;-84
2021/07/01 06:27:28;;;;;;;2.42;2.22;;;;;;;;;;5114418;28;20203;-83
2021/07/01 06:29:58;;;;;;;2.72;2.53;;;;;;;;;;5115558;28;20477;-84
2021/07/01 06:32:25;;;;;;;2.70;2.50;;;;;;;;;;5115071;28;20196;-83
2021/07/01 06:34:52;;;;;;;3.05;2.85;;;;;;;;;;5114804;28;20196;-83
2021/07/01 06:37:20;;;;;;;2.63;2.42;;;;;;;;;;5114108;28;20650;-84
2021/07/01 06:39:49;;;;;;;2.60;2.40;;;;;;;;;;5114814;28;20195;-84
2021/07/01 06:42:19;;;;;;;2.55;2.35;;;;;;;;;;5114651;28;20280;-84
2021/07/01 06:44:46;;;;;;;2.42;2.25;;;;;;;;;;5114763;28;20196;-84
2021/07/01 06:47:16;;;;;;;2.50;2.30;;;;;;;;;;5114619;28;20199;-83
2021/07/01 06:49:44;;;;;;;1.95;1.85;;;;;;;;;;5114609;28;20206;-83
2021/07/01 06:52:14;;;;;;;2.70;2.50;;;;;;;;;;5114612;28;20725;-84
2021/07/01 06:54:42;;;;;;;3.33;3.03;;;;;;;;;;5115110;28;20210;-84
2021/07/01 06:57:09;;;;;;;2.83;2.63;;;;;;;;;;5115005;28;20199;-83
2021/07/01 06:59:37;;;;;;;3.05;2.75;;;;;;;;;;5114911;28;20200;-83
2021/07/01 07:02:05;;;;;;;2.72;2.53;;;;;;;;;;5114898;28;20226;-84
2021/07/01 07:04:34;;;;;;;2.47;2.28;;;;;;;;;;5114443;28;20199;-83
2021/07/01 07:07:05;;;;;;;2.65;2.45;;;;;;;;;;5114981;28;20199;-84
2021/07/01 07:09:34;;;;;;;2.30;2.20;;;;;;;;;;5114872;28;20207;-84
2021/07/01 07:12:01;;;;;;;3.10;2.90;;;;;;;;;;5114498;28;20692;-84
2021/07/01 07:14:29;;;;;;;3.85;3.45;;;;;;;;;;5114692;28;20202;-84
2021/07/01 07:16:59;;;;;;;2.97;2.78;;;;;;;;;;5113129;28;20215;-84
2021/07/01 07:19:28;;;;;;;2.28;2.17;;;;;;;;;;5114261;28;20199;-84
2021/07/01 07:22:01;;;;;;;3.40;2.60;;;;;;;;;;5113573;28;20242;-83
2021/07/01 07:24:30;;;;;;;2.83;2.60;;;;;;;;;;5113868;28;20191;-83
2021/07/01 07:26:59;;;;;;;3.38;2.50;;;;;;;;;;5114455;28;20226;-83
2021/07/01 07:29:31;;;;;;;2.03;1.90;;;;;;;;;;5113801;28;20677;-83
2021/07/01 07:32:03;;;;;;;2.97;2.22;;;;;;;;;;5114156;28;20211;-83
2021/07/01 07:34:32;;;;;;;2.67;2.25;;;;;;;;;;5113893;28;20200;-83
2021/07/01 07:37:01;;;;;;;2.35;2.17;;;;;;;;;;5113551;28;20299;-83
2021/07/01 07:39:31;;;;;;;1.92;1.83;;;;;;;;;;5113859;28;20192;-83
2021/07/01 07:41:59;;;;;;;2.10;2.00;;;;;;;;;;5113282;28;20228;-83
2021/07/01 07:44:27;;;;;;;2.00;1.67;;;;;;;;;;5113680;28;20206;-83
2021/07/01 07:46:54;;;;;;;1.90;1.80;;;;;;;;;;5113329;28;20200;-82
2021/07/01 07:49:21;;;;;;;2.10;2.00;;;;;;;;;;5113394;28;20295;-83
2021/07/01 07:51:51;;;;;;;2.08;1.98;;;;;;;;;;5113099;28;20322;-83
2021/07/01 07:54:25;;;;;;;1.95;1.85;;;;;;;;;;5113060;28;20199;-83
2021/07/01 07:56:56;;;;;;;2.08;1.98;;;;;;;;;;5113482;28;20191;-82
2021/07/01 07:59:28;;;;;;;2.08;1.98;;;;;;;;;;5113201;28;20210;-83
2021/07/01 08:01:55;;;;;;;2.00;1.90;;;;;;;;;;5113270;28;20232;-82
2021/07/01 08:04:24;;;;;;;1.73;1.63;;;;;;;;;;5113540;28;20210;-83
2021/07/01 08:06:53;;;;;;;2.58;1.83;;;;;;;;;;5112949;28;20203;-83
2021/07/01 08:09:24;;;;;;;2.78;2.58;;;;;;;;;;5113789;28;20206;-83
2021/07/01 08:11:52;;;;;;;2.00;1.90;;;;;;;;;;5113243;28;20219;-83
2021/07/01 08:14:21;;;;;;;2.10;1.90;;;;;;;;;;5113381;28;20206;-84
2021/07/01 08:16:48;;;;;;;2.13;2.03;;;;;;;;;;5113604;28;20661;-84
2021/07/01 08:19:16;;;;;;;1.83;1.70;;;;;;;;;;5113049;28;20203;-84
2021/07/01 08:21:45;;;;;;;2.78;2.58;;;;;;;;;;5112523;28;20235;-83
2021/07/01 08:24:13;;;;;;;1.73;1.63;;;;;;;;;;5113171;28;20205;-83
2021/07/01 08:26:41;;;;;;;1.70;1.60;;;;;;;;;;5113466;28;20199;-82
2021/07/01 08:29:12;;;;;;;2.35;2.25;;;;;;;;;;5113672;28;20691;-82
2021/07/01 08:31:46;;;;;;;2.65;2.45;;;;;;;;;;5113460;28;20249;-82
2021/07/01 08:34:17;;;;;;;2.45;2.00;;;;;;;;;;5113428;28;20679;-82
2021/07/01 08:36:47;;;;;;;2.00;1.90;;;;;;;;;;5113165;28;20199;-82
2021/07/01 08:39:14;;;;;;;2.40;2.20;;;;;;;;;;5113285;28;20396;-82
2021/07/01 08:41:46;;;;;;;2.85;2.55;;;;;;;;;;5113618;28;20230;-82
2021/07/01 08:44:18;;;;;;;2.60;2.40;;;;;;;;;;5112979;28;20215;-82
2021/07/01 08:46:49;;;;;;;2.60;2.40;;;;;;;;;;5113966;28;20242;-82
2021/07/01 08:49:32;;;;;;;2.40;2.20;;;;;;;;;;5113511;28;20206;-82
2021/07/01 08:52:03;;;;;;;2.22;2.08;;;;;;;;;;5117043;28;20258;-82
2021/07/01 08:54:33;;;;;;;2.35;2.15;;;;;;;;;;5117824;28;20206;-82
2021/07/01 08:57:04;;;;;;;2.40;2.20;;;;;;;;;;5118276;28;20187;-82
2021/07/01 08:59:39;;;;;;;1.73;1.63;;;;;;;;;;5118811;28;20217;-82
2021/07/01 09:02:11;;;;;;;1.90;1.80;;;;;;;;;;5117893;28;20226;-81
2021/07/01 09:04:50;;;;;;;1.83;1.73;;;;;;;;;;5117749;28;20196;-81
2021/07/01 09:07:22;;;;;;;1.75;1.65;;;;;;;;;;5117379;28;20286;-82
2021/07/01 09:09:55;;;;;;;2.40;2.20;;;;;;;;;;5118258;28;20244;-82
2021/07/01 09:12:27;;;;;;;1.88;1.77;;;;;;;;;;5117823;28;20215;-82
2021/07/01 09:14:59;;;;;;;1.83;1.73;;;;;;;;;;5118942;28;20200;-82
2021/07/01 09:17:29;;;;;;;2.08;1.88;;;;;;;;;;5117866;28;20203;-82
2021/07/01 09:19:57;;;;;;;1.50;1.40;;;;;;;;;;5118083;28;20688;-82
2021/07/01 09:22:26;;;;;;;1.92;1.75;;;;;;;;;;5117674;28;20228;-82
2021/07/01 09:24:56;;;;;;;1.35;1.25;;;;;;;;;;5117587;28;20204;-82
2021/07/01 09:27:27;;;;;;;1.65;1.55;;;;;;;;;;5117807;28;20206;-82
2021/07/01 09:29:56;;;;;;;2.05;1.85;;;;;;;;;;5118507;28;20204;-82
2021/07/01 09:32:24;;;;;;;1.67;1.35;;;;;;;;;;5118342;28;20219;-82
2021/07/01 09:34:51;;;;;;;1.20;1.17;;;;;;;;;;5118573;28;20204;-83
2021/07/01 09:37:19;;;;;;;1.15;1.15;;;;;;;;;;5117384;28;20188;-82
2021/07/01 09:39:49;;;;;;;2.20;1.30;;;;;;;;;;5117722;28;20669;-82
2021/07/01 09:42:16;;;;;;;1.50;1.40;;;;;;;;;;5116996;28;20242;-82
2021/07/01 09:44:45;;;;;;;1.27;1.17;;;;;;;;;;5117080;28;20202;-82
2021/07/01 09:47:13;;;;;;;1.10;1.10;;;;;;;;;;5117268;28;20206;-82
2021/07/01 09:49:43;;;;;;;1.10;1.02;;;;;;;;;;5117904;28;20237;-82
2021/07/01 09:52:13;;;;;;;1.40;1.30;;;;;;;;;;5117553;28;20216;-82
2021/07/01 09:54:42;;;;;;;1.25;1.20;;;;;;;;;;5117900;28;20199;-82
2021/07/01 09:57:12;;;;;;;1.27;1.27;;;;;;;;;;5118634;28;20646;-82
2021/07/01 09:59:50;;;;;;;1.00;1.00;;;;;;;;;;5117910;28;20204;-82
2021/07/01 10:02:20;;;;;;;1.45;1.20;;;;;;;;;;5116960;28;20227;-83
2021/07/01 10:04:48;;;;;;;1.10;1.10;;;;;;;;;;5117961;28;20195;-82
2021/07/01 10:07:17;;;;;;;1.40;1.30;;;;;;;;;;5117539;28;20211;-82
2021/07/01 10:09:47;;;;;;;1.08;1.08;;;;;;;;;;5117975;28;20688;-83
2021/07/01 10:12:17;;;;;;;1.00;1.00;;;;;;;;;;5117986;28;20227;-82
2021/07/01 10:14:48;;;;;;;1.20;1.10;;;;;;;;;;5117762;28;20199;-83
2021/07/01 10:17:18;;;;;;;0.90;0.90;;;;;;;;;;5117594;28;20685;-82
2021/07/01 10:19:46;;;;;;;1.60;1.50;;;;;;;;;;5117639;28;20196;-83
2021/07/01 10:22:19;;;;;;;1.75;1.08;;;;;;;;;;5117386;28;20312;-83
2021/07/01 10:24:58;;;;;;;1.13;1.08;;;;;;;;;;5117944;28;20196;-83
2021/07/01 10:27:31;;;;;;;1.23;1.00;;;;;;;;;;5116864;28;20206;-85
2021/07/01 10:30:03;;;;;;;1.20;1.20;;;;;;;;;;5116841;28;20564;-84
2021/07/01 10:32:39;;;;;;;0.98;0.98;;;;;;;;;;5117461;28;20210;-84
2021/07/01 10:35:23;;;;;;;1.05;1.05;;;;;;;;;;5117663;28;20199;-84
2021/07/01 10:38:02;;;;;;;1.15;1.15;;;;;;;;;;5116778;28;20199;-84
2021/07/01 10:40:32;;;;;;;1.50;1.40;;;;;;;;;;5117196;28;20219;-83
2021/07/01 10:43:00;;;;;;;1.30;1.20;;;;;;;;;;5116884;28;20215;-83
2021/07/01 10:45:29;;;;;;;1.40;1.30;;;;;;;;;;5117458;28;20620;-83
2021/07/01 10:48:13;;;;;;;1.15;1.15;;;;;;;;;;5102494;28;20229;-83
2021/07/01 10:50:41;;;;;;;1.58;1.48;;;;;;;;;;5096780;28;20224;-83
2021/07/01 10:53:33;;;;;;;1.38;1.27;;;;;;;;;;5096727;28;20205;-83
2021/07/01 10:56:05;;;;;;;1.50;1.40;;;;;;;;;;5096434;28;20214;-83
2021/07/01 10:58:32;;;;;;;1.83;1.73;;;;;;;;;;5096617;28;20215;-82
2021/07/01 11:01:03;;;;;;;1.63;1.52;;;;;;;;;;5096140;28;20733;-82
2021/07/01 11:03:32;;;;;;;1.30;1.23;;;;;;;;;;5095102;28;20220;-83
2021/07/01 11:06:02;;;;;;;1.15;1.13;;;;;;;;;;5095985;28;20201;-84
2021/07/01 11:08:32;;;;;;;0.93;0.93;;;;;;;;;;5048305;28;20211;-82
2021/07/01 11:11:01;;;;;;;0.90;0.90;;;;;;;;;;5096388;28;20222;-82
2021/07/01 11:13:30;;;;;;;1.20;1.10;;;;;;;;;;5094217;28;20200;-82
2021/07/01 11:16:13;;;;;;;1.48;1.38;;;;;;;;;;5095445;28;20203;-83
2021/07/01 11:18:43;;;;;;;0.95;0.95;;;;;;;;;;5095288;28;20196;-83
2021/07/01 11:21:18;;;;;;;1.80;1.70;;;;;;;;;;5094754;28;20307;-83
2021/07/01 11:23:47;;;;;;;1.50;1.40;;;;;;;;;;5094779;28;20223;-82
2021/07/01 11:26:27;;;;;;;1.92;1.83;;;;;;;;;;5094987;28;20211;-83
2021/07/01 11:28:56;;;;;;;2.58;2.38;;;;;;;;;;5095322;28;20223;-82
2021/07/01 11:31:40;;;;;;;2.47;2.28;;;;;;;;;;5095454;28;20220;-83
2021/07/01 11:34:09;;;;;;;1.90;1.80;;;;;;;;;;5094927;28;20238;-82
2021/07/01 11:36:39;;;;;;;1.83;1.73;;;;;;;;;;5098260;28;20572;-83
2021/07/01 11:39:13;;;;;;;1.83;1.70;;;;;;;;;;5114272;28;20210;-82
2021/07/01 11:41:43;;;;;;;1.48;1.38;;;;;;;;;;5114149;28;20724;-83
2021/07/01 11:44:12;;;;;;;1.98;1.88;;;;;;;;;;5114883;28;20550;-82
2021/07/01 11:46:41;;;;;;;1.55;1.45;;;;;;;;;;5114405;28;20601;-83
2021/07/01 11:49:10;;;;;;;1.40;1.30;;;;;;;;;;5115038;28;20187;-83
2021/07/01 11:51:39;;;;;;;1.10;1.10;;;;;;;;;;5114964;28;20220;-82
2021/07/01 11:54:07;;;;;;;1.25;1.15;;;;;;;;;;5115068;28;20199;-83
2021/07/01 11:59:17;;;;;;;1.70;1.60;;;;;;;;;;5115011;28;20197;-82
2021/07/01 12:01:46;;;;;;;1.20;1.20;;;;;;;;;;5115504;28;20219;-82
2021/07/01 12:04:14;;;;;;;3.13;1.60;;;;;;;;;;5114523;28;20223;-82
2021/07/01 12:06:51;;;;;;;1.50;1.40;;;;;;;;;;5114784;28;20187;-84
2021/07/01 12:09:19;;;;;;;1.45;1.35;;;;;;;;;;5114756;28;20199;-83
2021/07/01 12:12:18;;;;;;;1.27;1.23;;;;;;;;;;5114854;28;20618;-82
2021/07/01 12:14:48;;;;;;;1.55;1.45;;;;;;;;;;5114431;28;20195;-82
2021/07/01 12:17:55;;;;;;;1.23;1.13;;;;;;;;;;5114615;28;20210;-83
2021/07/01 12:20:36;;;;;;;1.40;1.30;;;;;;;;;;5114544;28;20235;-82
2021/07/01 12:23:05;;;;;;;1.55;1.45;;;;;;;;;;5114415;28;20225;-83
2021/07/01 12:25:45;;;;;;;1.60;1.50;;;;;;;;;;5114754;28;20580;-83
2021/07/01 12:28:16;;;;;;;1.92;1.80;;;;;;;;;;5115048;28;20286;-84
2021/07/01 12:30:57;;;;;;;1.75;1.65;;;;;;;;;;5115121;28;20669;-83
2021/07/01 12:33:40;;;;;;;1.10;1.10;;;;;;;;;;5115007;28;20210;-83
2021/07/01 12:36:11;;;;;;;1.83;1.73;;;;;;;;;;5115003;28;20196;-83
2021/07/01 12:38:40;;;;;;;1.33;1.23;;;;;;;;;;5094451;28;20196;-83
2021/07/01 12:41:10;;;;;;;1.00;1.00;;;;;;;;;;5093934;28;20401;-83
2021/07/01 12:43:58;;;;;;;1.00;1.00;;;;;;;;;;5094110;28;20580;-83
2021/07/01 12:47:01;;;;;;;1.85;1.75;;;;;;;;;;5093477;28;20226;-83
2021/07/01 12:50:06;;;;;;;1.80;1.70;;;;;;;;;;5094420;28;20416;-83
2021/07/01 12:52:37;;;;;;;2.00;1.90;;;;;;;;;;5094222;28;20204;-83
2021/07/01 12:55:08;;;;;;;1.92;1.75;;;;;;;;;;5093623;28;20180;-83
2021/07/01 12:57:36;;;;;;;1.80;1.70;;;;;;;;;;5105775;28;20206;-83
2021/07/01 13:00:06;;;;;;;1.70;1.60;;;;;;;;;;5114393;28;20195;-84
2021/07/01 13:02:35;;;;;;;2.60;2.40;;;;;;;;;;5114240;28;20199;-83
2021/07/01 13:05:08;;;;;;;3.13;2.88;;;;;;;;;;5113602;28;20708;-83
2021/07/01 13:07:36;;;;;;;2.45;1.63;;;;;;;;;;5114382;28;20207;-84
2021/07/01 13:10:08;;;;;;;2.15;2.03;;;;;;;;;;5113487;28;20204;-84
2021/07/01 13:12:37;;;;;;;2.55;2.35;;;;;;;;;;5113625;28;20203;-85
2021/07/01 13:15:09;;;;;;;2.92;2.42;;;;;;;;;;5114143;28;20692;-84
2021/07/01 13:17:37;;;;;;;2.25;2.05;;;;;;;;;;5113328;28;20196;-86
2021/07/01 13:20:10;;;;;;;3.60;3.30;;;;;;;;;;5113566;28;20199;-86
2021/07/01 13:22:40;;;;;;;2.65;2.40;;;;;;;;;;5113898;28;20200;-85
2021/07/01 13:25:11;;;;;;;2.33;2.13;;;;;;;;;;5113746;28;20220;-85
2021/07/01 13:27:42;;;;;;;2.30;2.03;;;;;;;;;;5113796;28;20196;-84
2021/07/01 13:30:16;;;;;;;2.30;2.13;;;;;;;;;;5114042;28;20260;-85
2021/07/01 13:32:48;;;;;;;1.92;1.83;;;;;;;;;;5113763;28;20282;-85
2021/07/01 13:35:17;;;;;;;2.80;2.50;;;;;;;;;;5113930;28;20196;-85
2021/07/01 13:37:48;;;;;;;2.13;2.03;;;;;;;;;;5116233;28;20191;-84
2021/07/01 13:40:26;;;;;;;1.60;1.50;;;;;;;;;;5116415;28;20203;-83
2021/07/01 13:42:57;;;;;;;2.40;2.20;;;;;;;;;;5117572;28;20203;-84
2021/07/01 13:45:27;;;;;;;2.38;2.17;;;;;;;;;;5117524;28;20224;-83
2021/07/01 13:47:57;;;;;;;2.40;2.20;;;;;;;;;;5117196;28;20203;-85
2021/07/01 13:50:33;;;;;;;2.30;2.08;;;;;;;;;;5116621;28;20554;-84
2021/07/01 13:53:03;;;;;;;2.35;2.05;;;;;;;;;;5117348;28;20188;-84
2021/07/01 13:55:37;;;;;;;2.25;2.15;;;;;;;;;;5117556;28;20200;-84
2021/07/01 13:58:06;;;;;;;1.55;1.45;;;;;;;;;;5117383;28;20207;-84
2021/07/01 14:00:37;;;;;;;1.73;1.63;;;;;;;;;;5117405;28;20587;-83
2021/07/01 14:03:13;;;;;;;2.10;2.00;;;;;;;;;;5117406;28;20187;-82
2021/07/01 14:05:45;;;;;;;1.80;1.70;;;;;;;;;;5117588;28;20219;-83
2021/07/01 14:08:26;;;;;;;1.80;1.70;;;;;;;;;;5116766;28;20192;-82
2021/07/01 14:11:04;;;;;;;2.03;1.90;;;;;;;;;;5116807;28;20220;-83
2021/07/01 14:13:35;;;;;;;2.22;2.08;;;;;;;;;;5117185;28;20245;-83
2021/07/01 14:16:04;;;;;;;1.98;1.83;;;;;;;;;;5116430;28;20198;-84
2021/07/01 14:18:31;;;;;;;2.15;2.05;;;;;;;;;;5116326;28;20199;-83
2021/07/01 14:21:00;;;;;;;1.50;1.40;;;;;;;;;;5116217;28;20231;-84
2021/07/01 14:23:31;;;;;;;1.65;1.55;;;;;;;;;;5115999;28;20206;-83
2021/07/01 14:25:59;;;;;;;2.38;1.83;;;;;;;;;;5115998;28;20230;-83
2021/07/01 14:28:29;;;;;;;2.13;1.77;;;;;;;;;;5116081;28;20208;-86
2021/07/01 14:31:00;;;;;;;1.35;1.33;;;;;;;;;;5116575;28;20215;-85
2021/07/01 14:33:56;;;;;;;2.35;1.65;;;;;;;;;;5116524;28;20184;-84
2021/07/01 14:36:27;;;;;;;1.85;1.75;;;;;;;;;;5115703;28;20192;-83
2021/07/01 14:39:01;;;;;;;1.38;1.27;;;;;;;;;;5116578;28;20211;-83
2021/07/01 14:41:30;;;;;;;2.20;2.00;;;;;;;;;;5116684;28;20212;-83
2021/07/01 14:44:00;;;;;;;1.80;1.70;;;;;;;;;;5116624;28;20227;-84
2021/07/01 14:46:42;;;;;;;1.75;1.58;;;;;;;;;;5116280;28;20227;-83
2021/07/01 14:49:19;;;;;;;1.60;1.50;;;;;;;;;;5116074;28;20657;-85
2021/07/01 14:51:50;;;;;;;2.10;1.58;;;;;;;;;;5117438;28;20219;-85
2021/07/01 14:54:22;;;;;;;5.72;2.00;;;;;;;;;;5117252;28;20203;-84
2021/07/01 14:56:57;;;;;;;1.50;1.40;;;;;;;;;;5115507;28;20192;-83
2021/07/01 14:59:47;;;;;;;1.67;1.58;;;;;;;;;;5115407;28;20290;-83
2021/07/01 15:02:15;;;;;;;1.48;1.38;;;;;;;;;;5115705;28;20226;-85
2021/07/01 15:04:44;;;;;;;1.60;1.50;;;;;;;;;;5115015;28;20668;-84